»·PEaware :: N133TU KSBA-KSBP

N133TU :: KSBA-KSBP

FLIGHT INFORMATION

Flight Status: Arrived
Operator: Privately registered:
United States
More flights under this callsign
Pilot: Jeremy K. (15416)
Aircraft: CESSNA 172 SKYHAWK
(C172)
More flights by this aircraft type
Origin: KSBA Santa Barbara Mun
United States
Destination: KSBP San Luis Co Regl
United States
More flights between these airports :: More routes between these airports
Route: GVO V27 MQO
File this flight plan on PilotEdge
Remarks:
Altitude:
(Current/Filed)
4,500ft
Speed:
(Current/Filed)
100kts
Departed: 23-Aug-18 02:42 PM
Arrived: 23-Aug-18 03:31 PM
Distance/Time
Traveled:
63nm/0:48
Distance/Time
To Go:
Arrived

Flight Plot

Page will automatically refresh every two minutes.


Map Options




Map Legend


Flown Route
Filed Route
Departure Airport
Arrival Airport
Navaid (VOR, NDB)
Fix

Horizontal Profiles

Position Reports

Time Latitude Longitude Heading Altitude Ground
Speed
23-Aug-18 14:26 34.432100 -119.835605 251 17ft 0kts
23-Aug-18 14:27 34.432100 -119.835605 251 17ft 0kts
23-Aug-18 14:28 34.432100 -119.835605 251 17ft 0kts
23-Aug-18 14:29 34.432100 -119.835605 251 17ft 0kts
23-Aug-18 14:30 34.432100 -119.835605 251 17ft 0kts
23-Aug-18 14:31 34.432100 -119.835605 251 17ft 0kts
23-Aug-18 14:32 34.432100 -119.835605 251 17ft 0kts
23-Aug-18 14:33 34.432100 -119.835605 251 17ft 0kts
23-Aug-18 14:34 34.432100 -119.835605 251 17ft 0kts
23-Aug-18 14:35 34.432075 -119.835610 163 17ft 2kts
23-Aug-18 14:36 34.431349 -119.835311 178 17ft 9kts
23-Aug-18 14:37 34.430598 -119.835318 179 17ft 9kts
23-Aug-18 14:38 34.429506 -119.835323 182 17ft 8kts
23-Aug-18 14:39 34.428695 -119.835282 168 17ft 1kts
23-Aug-18 14:40 34.428627 -119.835268 168 17ft 0kts
23-Aug-18 14:41 34.428270 -119.835154 166 17ft 6kts
23-Aug-18 14:42 34.427858 -119.835765 266 17ft 18kts
23-Aug-18 14:43 34.427667 -119.846260 260 186ft 84kts
23-Aug-18 14:44 34.426870 -119.854215 256 414ft 91kts
23-Aug-18 14:45 34.424213 -119.865475 248 763ft 92kts
23-Aug-18 14:46 34.418901 -119.881592 248 919ft 113kts
23-Aug-18 14:47 34.415774 -119.901515 261 973ft 111kts
23-Aug-18 14:48 34.415002 -119.920876 279 956ft 107kts
23-Aug-18 14:49 34.420522 -119.937346 299 1210ft 89kts
23-Aug-18 14:50 34.428579 -119.948635 304 1476ft 98kts
23-Aug-18 14:51 34.437828 -119.962149 306 1673ft 112kts
23-Aug-18 14:52 34.446815 -119.976913 299 2044ft 104kts
23-Aug-18 14:53 34.454929 -119.991782 300 2648ft 86kts
23-Aug-18 14:54 34.462655 -120.002509 305 3065ft 90kts
23-Aug-18 14:55 34.468896 -120.010431 312 3340ft 94kts
23-Aug-18 14:56 34.476166 -120.018122 319 3641ft 95kts
23-Aug-18 14:57 34.483863 -120.024576 320 3883ft 99kts
23-Aug-18 14:58 34.491743 -120.030494 321 4115ft 103kts
23-Aug-18 14:59 34.500439 -120.035855 329 4312ft 106kts
23-Aug-18 15:00 34.508497 -120.042354 320 4518ft 106kts
23-Aug-18 15:01 34.514071 -120.051577 294 4767ft 100kts
23-Aug-18 15:02 34.518734 -120.062449 293 4792ft 108kts
23-Aug-18 15:03 34.528392 -120.085066 293 4748ft 109kts
23-Aug-18 15:04 34.564031 -120.123578 322 4461ft 115kts
23-Aug-18 15:05 34.607917 -120.161932 317 4474ft 113kts
23-Aug-18 15:06 34.644687 -120.195671 317 4474ft 112kts
23-Aug-18 15:07 34.679127 -120.227369 317 4474ft 112kts
23-Aug-18 15:08 34.716677 -120.261969 317 4477ft 112kts
23-Aug-18 15:09 34.765831 -120.307670 317 4496ft 114kts
23-Aug-18 15:10 34.816661 -120.354916 319 4508ft 120kts
23-Aug-18 15:11 34.868773 -120.402654 319 4517ft 122kts
23-Aug-18 15:12 34.920035 -120.450147 319 4519ft 122kts
23-Aug-18 15:13 34.970944 -120.497422 319 4519ft 122kts
23-Aug-18 15:14 35.021303 -120.544259 319 4517ft 122kts
23-Aug-18 15:15 35.074003 -120.593356 318 4513ft 122kts
23-Aug-18 15:16 35.086072 -120.604514 323 4510ft 122kts
23-Aug-18 15:17 35.101900 -120.603877 26 4373ft 143kts
23-Aug-18 15:18 35.110998 -120.588396 55 4169ft 152kts
23-Aug-18 15:19 35.122604 -120.575343 26 3494ft 160kts
23-Aug-18 15:20 35.136870 -120.565151 22 3100ft 127kts
23-Aug-18 15:21 35.148517 -120.555113 33 2925ft 107kts
23-Aug-18 15:22 35.162928 -120.554351 337 2042ft 124kts
23-Aug-18 15:23 35.179905 -120.559957 335 1687ft 104kts
23-Aug-18 15:24 35.191152 -120.569106 317 1573ft 100kts
23-Aug-18 15:25 35.201745 -120.582075 311 1309ft 100kts
23-Aug-18 15:26 35.209575 -120.593286 306 1155ft 63kts
23-Aug-18 15:27 35.214873 -120.601954 302 897ft 62kts
23-Aug-18 15:28 35.218615 -120.608894 301 874ft 55kts
23-Aug-18 15:29 35.222632 -120.615981 305 854ft 54kts
23-Aug-18 15:30 35.226283 -120.621825 302 604ft 53kts
23-Aug-18 15:31 35.229887 -120.628121 304 396ft 55kts
23-Aug-18 15:32 35.233358 -120.634016 302 222ft 38kts
23-Aug-18 15:33 35.234968 -120.636685 331 215ft 12kts
23-Aug-18 15:34 35.235298 -120.636255 74 215ft 0kts
23-Aug-18 15:35 35.235940 -120.636663 305 215ft 17kts
23-Aug-18 15:36 35.236866 -120.638306 305 215ft 8kts
23-Aug-18 15:37 35.238088 -120.638087 44 215ft 10kts
23-Aug-18 15:38 35.238228 -120.637802 83 215ft 0kts

Navigation Log

Ident Type
1. KSBA Airport
2. GVO Navaid
3. AFOXY Fix
4. ORCUT Fix
5. FABEG Fix
6. NINOO Fix
7. AVILA Fix
8. MQO Navaid
9. KSBP Airport